sensor_id;sensor_type;location;lat;lon;timestamp;P1;durP1;ratioP1;P2;durP2;ratioP2
62006;SDS011;47963;53.008;6.754;2022-07-09T00:02:24;27.63;;;15.60;;
62006;SDS011;47963;53.008;6.754;2022-07-09T00:04:50;30.13;;;15.10;;
62006;SDS011;47963;53.008;6.754;2022-07-09T00:07:15;27.63;;;15.02;;
62006;SDS011;47963;53.008;6.754;2022-07-09T00:09:41;28.00;;;15.85;;
62006;SDS011;47963;53.008;6.754;2022-07-09T00:12:07;29.27;;;14.95;;
62006;SDS011;47963;53.008;6.754;2022-07-09T00:14:33;30.05;;;14.95;;
62006;SDS011;47963;53.008;6.754;2022-07-09T00:16:59;25.95;;;13.65;;
62006;SDS011;47963;53.008;6.754;2022-07-09T00:19:25;28.38;;;13.70;;
62006;SDS011;47963;53.008;6.754;2022-07-09T00:21:51;24.38;;;14.32;;
62006;SDS011;47963;53.008;6.754;2022-07-09T00:24:17;29.40;;;14.57;;
62006;SDS011;47963;53.008;6.754;2022-07-09T00:26:42;26.83;;;13.52;;
62006;SDS011;47963;53.008;6.754;2022-07-09T00:29:08;24.27;;;13.38;;
62006;SDS011;47963;53.008;6.754;2022-07-09T00:31:34;23.17;;;13.00;;
62006;SDS011;47963;53.008;6.754;2022-07-09T00:33:59;31.08;;;14.65;;
62006;SDS011;47963;53.008;6.754;2022-07-09T00:36:25;26.25;;;13.23;;
62006;SDS011;47963;53.008;6.754;2022-07-09T00:38:50;27.13;;;14.43;;
62006;SDS011;47963;53.008;6.754;2022-07-09T00:41:16;29.67;;;13.77;;
62006;SDS011;47963;53.008;6.754;2022-07-09T00:43:48;25.48;;;13.50;;
62006;SDS011;47963;53.008;6.754;2022-07-09T00:46:15;20.83;;;12.13;;
62006;SDS011;47963;53.008;6.754;2022-07-09T00:48:41;22.55;;;12.13;;
62006;SDS011;47963;53.008;6.754;2022-07-09T00:51:08;25.92;;;11.88;;
62006;SDS011;47963;53.008;6.754;2022-07-09T00:53:34;27.60;;;13.73;;
62006;SDS011;47963;53.008;6.754;2022-07-09T00:56:00;26.10;;;13.15;;
62006;SDS011;47963;53.008;6.754;2022-07-09T00:58:27;28.23;;;12.68;;
62006;SDS011;47963;53.008;6.754;2022-07-09T01:00:54;26.23;;;12.93;;
62006;SDS011;47963;53.008;6.754;2022-07-09T01:03:20;23.08;;;12.88;;
62006;SDS011;47963;53.008;6.754;2022-07-09T01:05:46;30.77;;;14.65;;
62006;SDS011;47963;53.008;6.754;2022-07-09T01:08:12;29.77;;;12.93;;
62006;SDS011;47963;53.008;6.754;2022-07-09T01:10:38;26.10;;;11.43;;
62006;SDS011;47963;53.008;6.754;2022-07-09T01:13:04;26.40;;;13.20;;
62006;SDS011;47963;53.008;6.754;2022-07-09T01:15:30;29.85;;;13.88;;
62006;SDS011;47963;53.008;6.754;2022-07-09T01:17:56;26.88;;;12.80;;
62006;SDS011;47963;53.008;6.754;2022-07-09T01:20:26;28.65;;;13.45;;
62006;SDS011;47963;53.008;6.754;2022-07-09T01:22:54;23.70;;;12.55;;
62006;SDS011;47963;53.008;6.754;2022-07-09T01:25:20;24.17;;;12.35;;
62006;SDS011;47963;53.008;6.754;2022-07-09T01:27:59;27.50;;;13.05;;
62006;SDS011;47963;53.008;6.754;2022-07-09T01:30:25;28.65;;;13.52;;
62006;SDS011;47963;53.008;6.754;2022-07-09T01:32:52;27.65;;;12.98;;
62006;SDS011;47963;53.008;6.754;2022-07-09T01:35:18;26.67;;;12.95;;
62006;SDS011;47963;53.008;6.754;2022-07-09T01:37:44;25.45;;;13.48;;
62006;SDS011;47963;53.008;6.754;2022-07-09T01:40:10;27.27;;;12.60;;
62006;SDS011;47963;53.008;6.754;2022-07-09T01:42:37;28.98;;;13.50;;
62006;SDS011;47963;53.008;6.754;2022-07-09T01:45:02;30.40;;;13.40;;
62006;SDS011;47963;53.008;6.754;2022-07-09T01:47:28;24.75;;;12.50;;
62006;SDS011;47963;53.008;6.754;2022-07-09T01:49:54;29.38;;;13.15;;
62006;SDS011;47963;53.008;6.754;2022-07-09T01:52:20;24.45;;;12.63;;
62006;SDS011;47963;53.008;6.754;2022-07-09T01:54:45;26.80;;;15.25;;
62006;SDS011;47963;53.008;6.754;2022-07-09T01:57:11;26.05;;;13.32;;
62006;SDS011;47963;53.008;6.754;2022-07-09T01:59:36;27.30;;;13.35;;
62006;SDS011;47963;53.008;6.754;2022-07-09T02:02:02;34.00;;;15.52;;
62006;SDS011;47963;53.008;6.754;2022-07-09T02:04:28;22.02;;;12.82;;
62006;SDS011;47963;53.008;6.754;2022-07-09T02:06:53;35.88;;;16.17;;
62006;SDS011;47963;53.008;6.754;2022-07-09T02:09:21;32.42;;;15.40;;
62006;SDS011;47963;53.008;6.754;2022-07-09T02:11:47;32.80;;;15.05;;
62006;SDS011;47963;53.008;6.754;2022-07-09T02:14:13;28.13;;;14.60;;
62006;SDS011;47963;53.008;6.754;2022-07-09T02:16:39;33.80;;;15.82;;
62006;SDS011;47963;53.008;6.754;2022-07-09T02:19:05;31.23;;;15.30;;
62006;SDS011;47963;53.008;6.754;2022-07-09T02:21:31;37.90;;;17.38;;
62006;SDS011;47963;53.008;6.754;2022-07-09T02:23:57;34.35;;;16.27;;
62006;SDS011;47963;53.008;6.754;2022-07-09T02:26:28;31.17;;;15.40;;
62006;SDS011;47963;53.008;6.754;2022-07-09T02:28:55;33.72;;;15.85;;
62006;SDS011;47963;53.008;6.754;2022-07-09T02:31:20;29.00;;;15.02;;
62006;SDS011;47963;53.008;6.754;2022-07-09T02:33:46;35.67;;;16.83;;
62006;SDS011;47963;53.008;6.754;2022-07-09T02:36:15;29.90;;;15.68;;
62006;SDS011;47963;53.008;6.754;2022-07-09T02:38:40;35.42;;;18.42;;
62006;SDS011;47963;53.008;6.754;2022-07-09T02:41:06;37.25;;;16.50;;
62006;SDS011;47963;53.008;6.754;2022-07-09T02:43:32;36.22;;;16.73;;
62006;SDS011;47963;53.008;6.754;2022-07-09T02:45:57;32.42;;;16.77;;
62006;SDS011;47963;53.008;6.754;2022-07-09T02:48:23;35.10;;;17.60;;
62006;SDS011;47963;53.008;6.754;2022-07-09T02:50:50;38.35;;;18.45;;
62006;SDS011;47963;53.008;6.754;2022-07-09T02:53:17;35.95;;;17.85;;
62006;SDS011;47963;53.008;6.754;2022-07-09T02:55:43;39.50;;;18.45;;
62006;SDS011;47963;53.008;6.754;2022-07-09T02:58:09;39.45;;;18.40;;
62006;SDS011;47963;53.008;6.754;2022-07-09T03:00:38;33.30;;;16.95;;
62006;SDS011;47963;53.008;6.754;2022-07-09T03:03:05;34.75;;;18.02;;
62006;SDS011;47963;53.008;6.754;2022-07-09T03:05:31;41.08;;;19.00;;
62006;SDS011;47963;53.008;6.754;2022-07-09T03:07:57;39.20;;;18.13;;
62006;SDS011;47963;53.008;6.754;2022-07-09T03:10:23;35.85;;;17.65;;
62006;SDS011;47963;53.008;6.754;2022-07-09T03:12:49;42.75;;;19.38;;
62006;SDS011;47963;53.008;6.754;2022-07-09T03:15:14;33.60;;;17.25;;
62006;SDS011;47963;53.008;6.754;2022-07-09T03:17:44;38.45;;;19.40;;
62006;SDS011;47963;53.008;6.754;2022-07-09T03:20:11;38.20;;;18.83;;
62006;SDS011;47963;53.008;6.754;2022-07-09T03:22:38;34.53;;;19.00;;
62006;SDS011;47963;53.008;6.754;2022-07-09T03:25:04;33.00;;;18.15;;
62006;SDS011;47963;53.008;6.754;2022-07-09T03:27:30;34.15;;;17.48;;
62006;SDS011;47963;53.008;6.754;2022-07-09T03:29:56;31.63;;;17.30;;
62006;SDS011;47963;53.008;6.754;2022-07-09T03:32:22;39.03;;;16.88;;
62006;SDS011;47963;53.008;6.754;2022-07-09T03:34:50;32.55;;;17.65;;
62006;SDS011;47963;53.008;6.754;2022-07-09T03:37:17;31.48;;;15.55;;
62006;SDS011;47963;53.008;6.754;2022-07-09T03:39:43;30.98;;;16.40;;
62006;SDS011;47963;53.008;6.754;2022-07-09T03:42:10;30.77;;;16.02;;
62006;SDS011;47963;53.008;6.754;2022-07-09T03:44:36;29.95;;;15.27;;
62006;SDS011;47963;53.008;6.754;2022-07-09T03:47:02;29.27;;;14.27;;
62006;SDS011;47963;53.008;6.754;2022-07-09T03:49:29;30.42;;;14.77;;
62006;SDS011;47963;53.008;6.754;2022-07-09T03:51:54;32.42;;;15.10;;
62006;SDS011;47963;53.008;6.754;2022-07-09T03:54:20;29.90;;;14.82;;
62006;SDS011;47963;53.008;6.754;2022-07-09T03:56:46;28.58;;;14.48;;
62006;SDS011;47963;53.008;6.754;2022-07-09T03:59:12;26.42;;;14.02;;
62006;SDS011;47963;53.008;6.754;2022-07-09T04:01:37;30.45;;;14.52;;
62006;SDS011;47963;53.008;6.754;2022-07-09T04:04:03;29.48;;;13.82;;
62006;SDS011;47963;53.008;6.754;2022-07-09T04:06:29;27.55;;;13.98;;
62006;SDS011;47963;53.008;6.754;2022-07-09T04:08:55;27.67;;;14.57;;
62006;SDS011;47963;53.008;6.754;2022-07-09T04:11:21;27.13;;;14.45;;
62006;SDS011;47963;53.008;6.754;2022-07-09T04:13:47;34.75;;;15.65;;
62006;SDS011;47963;53.008;6.754;2022-07-09T04:16:13;27.38;;;13.35;;
62006;SDS011;47963;53.008;6.754;2022-07-09T04:18:40;27.02;;;13.88;;
62006;SDS011;47963;53.008;6.754;2022-07-09T04:21:09;28.83;;;13.80;;
62006;SDS011;47963;53.008;6.754;2022-07-09T04:23:35;29.73;;;14.82;;
62006;SDS011;47963;53.008;6.754;2022-07-09T04:26:01;36.53;;;15.52;;
62006;SDS011;47963;53.008;6.754;2022-07-09T04:28:26;32.30;;;14.10;;
62006;SDS011;47963;53.008;6.754;2022-07-09T04:30:52;30.73;;;14.85;;
62006;SDS011;47963;53.008;6.754;2022-07-09T04:33:17;29.45;;;14.43;;
62006;SDS011;47963;53.008;6.754;2022-07-09T04:35:44;26.88;;;14.40;;
62006;SDS011;47963;53.008;6.754;2022-07-09T04:38:13;28.25;;;13.02;;
62006;SDS011;47963;53.008;6.754;2022-07-09T04:40:39;31.17;;;13.82;;
62006;SDS011;47963;53.008;6.754;2022-07-09T04:43:05;30.23;;;13.52;;
62006;SDS011;47963;53.008;6.754;2022-07-09T04:45:31;25.52;;;13.07;;
62006;SDS011;47963;53.008;6.754;2022-07-09T04:47:57;26.70;;;13.30;;
62006;SDS011;47963;53.008;6.754;2022-07-09T04:50:24;27.33;;;13.20;;
62006;SDS011;47963;53.008;6.754;2022-07-09T04:52:50;30.70;;;13.52;;
62006;SDS011;47963;53.008;6.754;2022-07-09T04:55:16;30.13;;;14.25;;
62006;SDS011;47963;53.008;6.754;2022-07-09T04:57:42;34.30;;;12.70;;
62006;SDS011;47963;53.008;6.754;2022-07-09T05:00:08;28.77;;;13.70;;
62006;SDS011;47963;53.008;6.754;2022-07-09T05:02:36;27.55;;;12.88;;
62006;SDS011;47963;53.008;6.754;2022-07-09T05:05:02;30.63;;;14.07;;
62006;SDS011;47963;53.008;6.754;2022-07-09T05:07:29;30.15;;;12.63;;
62006;SDS011;47963;53.008;6.754;2022-07-09T05:09:55;31.67;;;13.75;;
62006;SDS011;47963;53.008;6.754;2022-07-09T05:12:21;25.35;;;12.63;;
62006;SDS011;47963;53.008;6.754;2022-07-09T05:14:47;26.45;;;12.77;;
62006;SDS011;47963;53.008;6.754;2022-07-09T05:17:12;26.25;;;13.30;;
62006;SDS011;47963;53.008;6.754;2022-07-09T05:19:38;29.83;;;13.70;;
62006;SDS011;47963;53.008;6.754;2022-07-09T05:22:04;31.25;;;13.02;;
62006;SDS011;47963;53.008;6.754;2022-07-09T05:24:29;27.60;;;13.75;;
62006;SDS011;47963;53.008;6.754;2022-07-09T05:26:55;29.38;;;13.52;;
62006;SDS011;47963;53.008;6.754;2022-07-09T05:29:21;27.42;;;13.10;;
62006;SDS011;47963;53.008;6.754;2022-07-09T05:31:47;29.95;;;13.98;;
62006;SDS011;47963;53.008;6.754;2022-07-09T05:34:14;26.08;;;12.68;;
62006;SDS011;47963;53.008;6.754;2022-07-09T05:36:40;25.60;;;13.27;;
62006;SDS011;47963;53.008;6.754;2022-07-09T05:39:05;28.30;;;13.07;;
62006;SDS011;47963;53.008;6.754;2022-07-09T05:41:32;28.45;;;12.70;;
62006;SDS011;47963;53.008;6.754;2022-07-09T05:43:58;27.63;;;12.55;;
62006;SDS011;47963;53.008;6.754;2022-07-09T05:46:24;27.05;;;13.05;;
62006;SDS011;47963;53.008;6.754;2022-07-09T05:48:51;23.58;;;12.35;;
62006;SDS011;47963;53.008;6.754;2022-07-09T05:51:17;26.25;;;13.40;;
62006;SDS011;47963;53.008;6.754;2022-07-09T05:53:43;25.88;;;12.27;;
62006;SDS011;47963;53.008;6.754;2022-07-09T05:56:08;28.70;;;12.70;;
62006;SDS011;47963;53.008;6.754;2022-07-09T05:58:34;27.23;;;11.95;;
62006;SDS011;47963;53.008;6.754;2022-07-09T06:01:02;22.48;;;11.95;;
62006;SDS011;47963;53.008;6.754;2022-07-09T06:03:28;23.00;;;11.73;;
62006;SDS011;47963;53.008;6.754;2022-07-09T06:05:54;25.73;;;10.82;;
62006;SDS011;47963;53.008;6.754;2022-07-09T06:08:20;21.52;;;10.30;;
62006;SDS011;47963;53.008;6.754;2022-07-09T06:10:46;22.17;;;10.57;;
62006;SDS011;47963;53.008;6.754;2022-07-09T06:13:11;21.58;;;9.82;;
62006;SDS011;47963;53.008;6.754;2022-07-09T06:15:37;24.17;;;10.10;;
62006;SDS011;47963;53.008;6.754;2022-07-09T06:18:03;21.92;;;9.43;;
62006;SDS011;47963;53.008;6.754;2022-07-09T06:20:28;21.75;;;10.55;;
62006;SDS011;47963;53.008;6.754;2022-07-09T06:22:54;23.80;;;10.68;;
62006;SDS011;47963;53.008;6.754;2022-07-09T06:25:19;23.25;;;10.57;;
62006;SDS011;47963;53.008;6.754;2022-07-09T06:27:45;24.92;;;10.30;;
62006;SDS011;47963;53.008;6.754;2022-07-09T06:30:11;22.35;;;10.07;;
62006;SDS011;47963;53.008;6.754;2022-07-09T06:32:37;22.85;;;9.48;;
62006;SDS011;47963;53.008;6.754;2022-07-09T06:35:02;21.63;;;10.20;;
62006;SDS011;47963;53.008;6.754;2022-07-09T06:37:28;21.20;;;9.82;;
62006;SDS011;47963;53.008;6.754;2022-07-09T06:39:54;23.08;;;9.35;;
62006;SDS011;47963;53.008;6.754;2022-07-09T06:42:22;21.88;;;9.63;;
62006;SDS011;47963;53.008;6.754;2022-07-09T06:44:48;20.05;;;9.65;;
62006;SDS011;47963;53.008;6.754;2022-07-09T06:47:13;19.88;;;9.73;;
62006;SDS011;47963;53.008;6.754;2022-07-09T06:49:39;21.42;;;9.63;;
62006;SDS011;47963;53.008;6.754;2022-07-09T06:52:05;21.38;;;10.15;;
62006;SDS011;47963;53.008;6.754;2022-07-09T06:54:31;22.20;;;9.73;;
62006;SDS011;47963;53.008;6.754;2022-07-09T06:56:56;20.95;;;9.07;;
62006;SDS011;47963;53.008;6.754;2022-07-09T06:59:25;19.92;;;9.32;;
62006;SDS011;47963;53.008;6.754;2022-07-09T07:01:51;21.23;;;9.80;;
62006;SDS011;47963;53.008;6.754;2022-07-09T07:04:17;22.58;;;8.55;;
62006;SDS011;47963;53.008;6.754;2022-07-09T07:06:42;18.52;;;8.57;;
62006;SDS011;47963;53.008;6.754;2022-07-09T07:09:11;19.73;;;9.35;;
62006;SDS011;47963;53.008;6.754;2022-07-09T07:11:37;19.48;;;8.82;;
62006;SDS011;47963;53.008;6.754;2022-07-09T07:14:02;23.58;;;9.55;;
62006;SDS011;47963;53.008;6.754;2022-07-09T07:16:28;19.02;;;8.75;;
62006;SDS011;47963;53.008;6.754;2022-07-09T07:18:54;23.27;;;9.75;;
62006;SDS011;47963;53.008;6.754;2022-07-09T07:21:19;20.73;;;9.70;;
62006;SDS011;47963;53.008;6.754;2022-07-09T07:23:45;20.70;;;9.30;;
62006;SDS011;47963;53.008;6.754;2022-07-09T07:26:11;20.75;;;9.60;;
62006;SDS011;47963;53.008;6.754;2022-07-09T07:28:36;22.17;;;8.60;;
62006;SDS011;47963;53.008;6.754;2022-07-09T07:31:02;20.70;;;9.57;;
62006;SDS011;47963;53.008;6.754;2022-07-09T07:33:28;20.00;;;8.27;;
62006;SDS011;47963;53.008;6.754;2022-07-09T07:35:53;19.50;;;9.02;;
62006;SDS011;47963;53.008;6.754;2022-07-09T07:38:19;21.27;;;8.43;;
62006;SDS011;47963;53.008;6.754;2022-07-09T07:40:45;21.00;;;8.43;;
62006;SDS011;47963;53.008;6.754;2022-07-09T07:43:10;14.25;;;7.32;;
62006;SDS011;47963;53.008;6.754;2022-07-09T07:45:36;17.08;;;8.18;;
62006;SDS011;47963;53.008;6.754;2022-07-09T07:48:02;18.23;;;8.63;;
62006;SDS011;47963;53.008;6.754;2022-07-09T07:50:28;15.85;;;7.70;;
62006;SDS011;47963;53.008;6.754;2022-07-09T07:52:54;18.92;;;7.53;;
62006;SDS011;47963;53.008;6.754;2022-07-09T07:55:20;12.90;;;6.70;;
62006;SDS011;47963;53.008;6.754;2022-07-09T07:57:47;16.95;;;6.93;;
62006;SDS011;47963;53.008;6.754;2022-07-09T08:00:13;15.43;;;6.57;;
62006;SDS011;47963;53.008;6.754;2022-07-09T08:02:39;14.20;;;6.38;;
62006;SDS011;47963;53.008;6.754;2022-07-09T08:05:05;15.95;;;6.55;;
62006;SDS011;47963;53.008;6.754;2022-07-09T08:07:31;13.25;;;6.70;;
62006;SDS011;47963;53.008;6.754;2022-07-09T08:09:57;16.65;;;6.53;;
62006;SDS011;47963;53.008;6.754;2022-07-09T08:12:23;15.95;;;6.80;;
62006;SDS011;47963;53.008;6.754;2022-07-09T08:14:49;16.00;;;5.80;;
62006;SDS011;47963;53.008;6.754;2022-07-09T08:17:15;14.60;;;6.30;;
62006;SDS011;47963;53.008;6.754;2022-07-09T08:19:40;15.82;;;6.55;;
62006;SDS011;47963;53.008;6.754;2022-07-09T08:22:06;14.35;;;5.68;;
62006;SDS011;47963;53.008;6.754;2022-07-09T08:24:31;13.55;;;6.18;;
62006;SDS011;47963;53.008;6.754;2022-07-09T08:26:57;12.27;;;5.63;;
62006;SDS011;47963;53.008;6.754;2022-07-09T08:29:24;14.88;;;5.70;;
62006;SDS011;47963;53.008;6.754;2022-07-09T08:31:50;14.27;;;5.43;;
62006;SDS011;47963;53.008;6.754;2022-07-09T08:34:16;18.13;;;5.38;;
62006;SDS011;47963;53.008;6.754;2022-07-09T08:36:41;13.63;;;4.75;;
62006;SDS011;47963;53.008;6.754;2022-07-09T08:39:07;10.98;;;4.70;;
62006;SDS011;47963;53.008;6.754;2022-07-09T08:41:33;17.67;;;5.30;;
62006;SDS011;47963;53.008;6.754;2022-07-09T08:43:59;14.32;;;4.93;;
62006;SDS011;47963;53.008;6.754;2022-07-09T08:46:28;11.35;;;4.43;;
62006;SDS011;47963;53.008;6.754;2022-07-09T08:48:56;11.02;;;4.00;;
62006;SDS011;47963;53.008;6.754;2022-07-09T08:51:23;12.73;;;4.50;;
62006;SDS011;47963;53.008;6.754;2022-07-09T08:53:49;10.38;;;4.07;;
62006;SDS011;47963;53.008;6.754;2022-07-09T08:56:15;12.18;;;4.40;;
62006;SDS011;47963;53.008;6.754;2022-07-09T08:58:40;12.05;;;4.55;;
62006;SDS011;47963;53.008;6.754;2022-07-09T09:01:06;11.80;;;4.88;;
62006;SDS011;47963;53.008;6.754;2022-07-09T09:03:36;12.35;;;4.30;;
62006;SDS011;47963;53.008;6.754;2022-07-09T09:06:05;13.35;;;4.43;;
62006;SDS011;47963;53.008;6.754;2022-07-09T09:08:43;13.02;;;4.10;;
62006;SDS011;47963;53.008;6.754;2022-07-09T09:11:19;12.73;;;4.18;;
62006;SDS011;47963;53.008;6.754;2022-07-09T09:13:47;9.85;;;3.80;;
62006;SDS011;47963;53.008;6.754;2022-07-09T09:16:14;12.02;;;4.05;;
62006;SDS011;47963;53.008;6.754;2022-07-09T09:18:51;12.05;;;4.25;;
62006;SDS011;47963;53.008;6.754;2022-07-09T09:21:21;14.00;;;4.40;;
62006;SDS011;47963;53.008;6.754;2022-07-09T09:23:49;13.82;;;4.28;;
62006;SDS011;47963;53.008;6.754;2022-07-09T09:26:20;11.65;;;4.28;;
62006;SDS011;47963;53.008;6.754;2022-07-09T09:31:29;13.30;;;4.57;;
62006;SDS011;47963;53.008;6.754;2022-07-09T09:33:57;11.77;;;3.88;;
62006;SDS011;47963;53.008;6.754;2022-07-09T09:36:35;12.50;;;4.13;;
62006;SDS011;47963;53.008;6.754;2022-07-09T09:41:50;13.60;;;3.90;;
62006;SDS011;47963;53.008;6.754;2022-07-09T09:44:18;11.27;;;4.05;;
62006;SDS011;47963;53.008;6.754;2022-07-09T09:47:06;12.88;;;3.72;;
62006;SDS011;47963;53.008;6.754;2022-07-09T09:49:32;13.50;;;3.90;;
62006;SDS011;47963;53.008;6.754;2022-07-09T09:52:03;11.32;;;4.18;;
62006;SDS011;47963;53.008;6.754;2022-07-09T09:54:37;11.18;;;3.42;;
62006;SDS011;47963;53.008;6.754;2022-07-09T09:57:09;9.90;;;3.17;;
62006;SDS011;47963;53.008;6.754;2022-07-09T09:59:39;10.00;;;3.50;;
62006;SDS011;47963;53.008;6.754;2022-07-09T10:02:07;14.23;;;4.00;;
62006;SDS011;47963;53.008;6.754;2022-07-09T10:04:35;9.75;;;3.30;;
62006;SDS011;47963;53.008;6.754;2022-07-09T10:07:05;10.77;;;3.42;;
62006;SDS011;47963;53.008;6.754;2022-07-09T10:09:31;9.98;;;3.10;;
62006;SDS011;47963;53.008;6.754;2022-07-09T10:11:57;11.60;;;3.72;;
62006;SDS011;47963;53.008;6.754;2022-07-09T10:16:49;15.27;;;3.90;;
62006;SDS011;47963;53.008;6.754;2022-07-09T10:19:25;10.75;;;4.22;;
62006;SDS011;47963;53.008;6.754;2022-07-09T10:21:53;13.50;;;3.78;;
62006;SDS011;47963;53.008;6.754;2022-07-09T10:24:26;11.07;;;4.20;;
62006;SDS011;47963;53.008;6.754;2022-07-09T10:27:40;12.60;;;4.18;;
62006;SDS011;47963;53.008;6.754;2022-07-09T10:32:28;16.30;;;4.57;;
62006;SDS011;47963;53.008;6.754;2022-07-09T10:37:34;13.10;;;4.20;;
62006;SDS011;47963;53.008;6.754;2022-07-09T10:40:10;8.88;;;3.28;;
62006;SDS011;47963;53.008;6.754;2022-07-09T10:42:39;11.07;;;3.40;;
62006;SDS011;47963;53.008;6.754;2022-07-09T10:45:25;11.18;;;3.13;;
62006;SDS011;47963;53.008;6.754;2022-07-09T10:48:08;11.85;;;3.28;;
62006;SDS011;47963;53.008;6.754;2022-07-09T10:50:39;12.80;;;3.65;;
62006;SDS011;47963;53.008;6.754;2022-07-09T10:55:32;10.77;;;3.40;;
62006;SDS011;47963;53.008;6.754;2022-07-09T10:57:59;14.50;;;3.88;;
62006;SDS011;47963;53.008;6.754;2022-07-09T11:00:29;9.23;;;3.90;;
62006;SDS011;47963;53.008;6.754;2022-07-09T11:03:04;11.57;;;3.70;;
62006;SDS011;47963;53.008;6.754;2022-07-09T11:05:34;10.95;;;4.38;;
62006;SDS011;47963;53.008;6.754;2022-07-09T11:08:09;17.85;;;4.10;;
62006;SDS011;47963;53.008;6.754;2022-07-09T11:10:37;17.52;;;4.78;;
62006;SDS011;47963;53.008;6.754;2022-07-09T11:13:05;13.32;;;4.43;;
62006;SDS011;47963;53.008;6.754;2022-07-09T11:15:33;17.65;;;4.53;;
62006;SDS011;47963;53.008;6.754;2022-07-09T11:20:28;15.93;;;4.50;;
62006;SDS011;47963;53.008;6.754;2022-07-09T11:22:55;16.17;;;4.40;;
62006;SDS011;47963;53.008;6.754;2022-07-09T11:25:25;13.40;;;4.28;;
62006;SDS011;47963;53.008;6.754;2022-07-09T11:27:53;13.82;;;4.03;;
62006;SDS011;47963;53.008;6.754;2022-07-09T11:30:21;13.93;;;3.58;;
62006;SDS011;47963;53.008;6.754;2022-07-09T11:32:47;13.48;;;3.83;;
62006;SDS011;47963;53.008;6.754;2022-07-09T11:35:22;15.45;;;3.97;;
62006;SDS011;47963;53.008;6.754;2022-07-09T11:37:57;15.65;;;3.95;;
62006;SDS011;47963;53.008;6.754;2022-07-09T11:40:26;14.77;;;4.00;;
62006;SDS011;47963;53.008;6.754;2022-07-09T11:42:53;14.35;;;4.00;;
62006;SDS011;47963;53.008;6.754;2022-07-09T11:45:22;17.27;;;3.85;;
62006;SDS011;47963;53.008;6.754;2022-07-09T11:47:50;14.02;;;3.92;;
62006;SDS011;47963;53.008;6.754;2022-07-09T11:50:26;15.57;;;4.00;;
62006;SDS011;47963;53.008;6.754;2022-07-09T11:52:52;17.23;;;4.20;;
62006;SDS011;47963;53.008;6.754;2022-07-09T11:55:19;12.30;;;3.50;;
62006;SDS011;47963;53.008;6.754;2022-07-09T11:57:59;11.55;;;3.38;;
62006;SDS011;47963;53.008;6.754;2022-07-09T12:00:30;14.90;;;2.85;;
62006;SDS011;47963;53.008;6.754;2022-07-09T12:02:58;15.80;;;3.63;;
62006;SDS011;47963;53.008;6.754;2022-07-09T12:05:31;10.70;;;2.67;;
62006;SDS011;47963;53.008;6.754;2022-07-09T12:08:07;12.07;;;2.40;;
62006;SDS011;47963;53.008;6.754;2022-07-09T12:10:37;10.70;;;2.50;;
62006;SDS011;47963;53.008;6.754;2022-07-09T12:13:04;14.45;;;2.90;;
62006;SDS011;47963;53.008;6.754;2022-07-09T12:15:31;10.75;;;2.60;;
62006;SDS011;47963;53.008;6.754;2022-07-09T12:17:59;10.05;;;2.33;;
62006;SDS011;47963;53.008;6.754;2022-07-09T12:20:32;8.98;;;2.60;;
62006;SDS011;47963;53.008;6.754;2022-07-09T12:25:23;9.85;;;2.03;;
62006;SDS011;47963;53.008;6.754;2022-07-09T12:27:49;8.18;;;1.80;;
62006;SDS011;47963;53.008;6.754;2022-07-09T12:30:16;8.68;;;2.33;;
62006;SDS011;47963;53.008;6.754;2022-07-09T12:32:42;11.68;;;2.20;;
62006;SDS011;47963;53.008;6.754;2022-07-09T12:35:08;10.80;;;2.60;;
62006;SDS011;47963;53.008;6.754;2022-07-09T12:37:35;8.85;;;2.03;;
62006;SDS011;47963;53.008;6.754;2022-07-09T12:40:02;10.93;;;2.10;;
62006;SDS011;47963;53.008;6.754;2022-07-09T12:42:28;9.73;;;2.70;;
62006;SDS011;47963;53.008;6.754;2022-07-09T12:44:54;9.32;;;1.95;;
62006;SDS011;47963;53.008;6.754;2022-07-09T12:47:20;11.77;;;2.25;;
62006;SDS011;47963;53.008;6.754;2022-07-09T12:49:45;11.00;;;2.40;;
62006;SDS011;47963;53.008;6.754;2022-07-09T12:52:11;12.52;;;2.75;;
62006;SDS011;47963;53.008;6.754;2022-07-09T12:54:37;9.55;;;2.45;;
62006;SDS011;47963;53.008;6.754;2022-07-09T12:57:03;9.65;;;2.22;;
62006;SDS011;47963;53.008;6.754;2022-07-09T12:59:29;9.95;;;2.30;;
62006;SDS011;47963;53.008;6.754;2022-07-09T13:01:54;11.68;;;2.58;;
62006;SDS011;47963;53.008;6.754;2022-07-09T13:04:20;10.10;;;2.38;;
62006;SDS011;47963;53.008;6.754;2022-07-09T13:06:46;11.50;;;3.00;;
62006;SDS011;47963;53.008;6.754;2022-07-09T13:09:12;11.25;;;2.40;;
62006;SDS011;47963;53.008;6.754;2022-07-09T13:11:38;9.98;;;2.40;;
62006;SDS011;47963;53.008;6.754;2022-07-09T13:14:04;9.82;;;2.20;;
62006;SDS011;47963;53.008;6.754;2022-07-09T13:16:30;9.50;;;1.92;;
62006;SDS011;47963;53.008;6.754;2022-07-09T13:18:56;11.25;;;2.20;;
62006;SDS011;47963;53.008;6.754;2022-07-09T13:21:22;11.18;;;2.50;;
62006;SDS011;47963;53.008;6.754;2022-07-09T13:23:48;12.25;;;2.20;;
62006;SDS011;47963;53.008;6.754;2022-07-09T13:26:15;11.07;;;2.22;;
62006;SDS011;47963;53.008;6.754;2022-07-09T13:28:41;14.10;;;2.60;;
62006;SDS011;47963;53.008;6.754;2022-07-09T13:31:08;11.70;;;2.90;;
62006;SDS011;47963;53.008;6.754;2022-07-09T13:33:34;13.02;;;2.75;;
62006;SDS011;47963;53.008;6.754;2022-07-09T13:36:02;9.80;;;2.30;;
62006;SDS011;47963;53.008;6.754;2022-07-09T13:38:31;8.70;;;1.95;;
62006;SDS011;47963;53.008;6.754;2022-07-09T13:40:57;11.05;;;2.45;;
62006;SDS011;47963;53.008;6.754;2022-07-09T13:43:24;12.80;;;2.40;;
62006;SDS011;47963;53.008;6.754;2022-07-09T13:45:51;10.93;;;2.20;;
62006;SDS011;47963;53.008;6.754;2022-07-09T13:48:17;7.82;;;1.88;;
62006;SDS011;47963;53.008;6.754;2022-07-09T13:50:42;12.07;;;2.20;;
62006;SDS011;47963;53.008;6.754;2022-07-09T13:53:08;9.52;;;2.28;;
62006;SDS011;47963;53.008;6.754;2022-07-09T13:55:34;9.63;;;2.10;;
62006;SDS011;47963;53.008;6.754;2022-07-09T13:58:00;12.85;;;2.40;;
62006;SDS011;47963;53.008;6.754;2022-07-09T14:00:26;11.57;;;2.30;;
62006;SDS011;47963;53.008;6.754;2022-07-09T14:02:52;10.00;;;2.22;;
62006;SDS011;47963;53.008;6.754;2022-07-09T14:05:17;8.95;;;2.22;;
62006;SDS011;47963;53.008;6.754;2022-07-09T14:07:44;10.43;;;2.30;;
62006;SDS011;47963;53.008;6.754;2022-07-09T14:10:10;11.93;;;2.60;;
62006;SDS011;47963;53.008;6.754;2022-07-09T14:12:36;11.18;;;2.17;;
62006;SDS011;47963;53.008;6.754;2022-07-09T14:15:02;10.57;;;2.10;;
62006;SDS011;47963;53.008;6.754;2022-07-09T14:17:28;9.68;;;2.10;;
62006;SDS011;47963;53.008;6.754;2022-07-09T14:19:54;15.70;;;2.60;;
62006;SDS011;47963;53.008;6.754;2022-07-09T14:22:19;11.95;;;2.38;;
62006;SDS011;47963;53.008;6.754;2022-07-09T14:24:45;10.43;;;1.95;;
62006;SDS011;47963;53.008;6.754;2022-07-09T14:27:11;8.65;;;2.10;;
62006;SDS011;47963;53.008;6.754;2022-07-09T14:29:37;10.30;;;2.38;;
62006;SDS011;47963;53.008;6.754;2022-07-09T14:32:04;8.52;;;2.30;;
62006;SDS011;47963;53.008;6.754;2022-07-09T14:34:32;9.73;;;2.10;;
62006;SDS011;47963;53.008;6.754;2022-07-09T14:36:58;11.43;;;2.47;;
62006;SDS011;47963;53.008;6.754;2022-07-09T14:39:24;11.10;;;2.30;;
62006;SDS011;47963;53.008;6.754;2022-07-09T14:41:50;11.45;;;2.42;;
62006;SDS011;47963;53.008;6.754;2022-07-09T14:44:16;9.88;;;2.30;;
62006;SDS011;47963;53.008;6.754;2022-07-09T14:46:42;10.35;;;2.25;;
62006;SDS011;47963;53.008;6.754;2022-07-09T14:49:08;11.55;;;2.22;;
62006;SDS011;47963;53.008;6.754;2022-07-09T14:51:34;9.88;;;2.58;;